createdAt,value
2023-02-07T00:02:32.850Z,59.60
2023-02-07T00:05:37.179Z,56.25
2023-02-07T00:08:41.478Z,52.20
2023-02-07T00:11:44.935Z,57.75
2023-02-07T00:14:49.598Z,57.00
2023-02-07T00:17:52.870Z,56.40
2023-02-07T00:21:01.049Z,68.00
2023-02-07T00:24:04.824Z,57.00
2023-02-07T00:27:08.035Z,55.40
2023-02-07T00:30:14.045Z,55.00
2023-02-07T00:33:17.971Z,52.75
2023-02-07T00:36:23.837Z,51.00
2023-02-07T00:39:27.053Z,51.00
2023-02-07T00:42:30.303Z,47.40
2023-02-07T00:45:35.102Z,48.00
2023-02-07T00:48:39.618Z,50.00
2023-02-07T00:51:44.823Z,49.20
2023-02-07T00:54:48.120Z,50.00
2023-02-07T00:57:51.362Z,50.50
2023-02-07T01:00:56.044Z,51.00
2023-02-07T01:03:59.704Z,50.00
2023-02-07T01:07:03.402Z,53.00
2023-02-07T01:10:07.450Z,50.60
2023-02-07T01:13:11.232Z,53.00
2023-02-07T01:16:24.567Z,54.50
2023-02-07T01:19:27.826Z,59.40
2023-02-07T01:22:31.415Z,62.80
2023-02-07T01:25:35.144Z,67.40
2023-02-07T01:28:40.517Z,65.00
2023-02-07T01:39:07.288Z,71.60
2023-02-07T01:42:14.346Z,70.00
2023-02-07T01:45:27.026Z,73.00
2023-02-07T01:48:33.294Z,66.50
2023-02-07T01:51:38.367Z,65.00
2023-02-07T01:54:43.581Z,69.20
2023-02-07T01:57:47.201Z,66.50
2023-02-07T02:00:52.028Z,69.20
2023-02-07T02:03:57.645Z,73.00
2023-02-07T02:07:00.940Z,75.00
2023-02-07T02:10:11.121Z,69.00
2023-02-07T02:13:24.498Z,70.50
2023-02-07T02:16:36.580Z,69.00
2023-02-07T02:20:10.248Z,68.50
2023-02-07T02:23:26.761Z,66.00
2023-02-07T02:26:59.373Z,72.20
2023-02-07T02:30:32.307Z,66.80
2023-02-07T02:33:45.767Z,73.00
2023-02-07T02:36:57.953Z,70.80
2023-02-07T02:40:09.191Z,72.25
2023-02-07T02:43:20.946Z,78.60
2023-02-07T02:46:28.556Z,78.80
2023-02-07T02:49:37.369Z,75.80
2023-02-07T02:52:50.179Z,68.20
2023-02-07T02:56:14.920Z,69.50
2023-02-07T02:59:38.341Z,73.40
2023-02-07T03:02:54.466Z,70.00
2023-02-07T03:06:08.859Z,69.00
2023-02-07T03:09:22.872Z,66.00
2023-02-07T03:12:33.853Z,71.80
2023-02-07T03:15:48.999Z,69.00
2023-02-07T03:19:02.267Z,66.80
2023-02-07T03:22:13.201Z,64.60
2023-02-07T03:25:22.318Z,62.25
2023-02-07T03:28:29.293Z,68.20
2023-02-07T03:43:00.909Z,65.00
2023-02-07T03:46:04.197Z,60.60
2023-02-07T03:49:09.392Z,64.60
2023-02-07T03:52:12.743Z,64.00
2023-02-07T03:55:16.021Z,63.00
2023-02-07T03:58:20.674Z,59.75
2023-02-07T04:24:20.235Z,57.00
2023-02-07T04:27:23.819Z,54.20
2023-02-07T05:12:41.780Z,58.40
2023-02-07T05:19:23.586Z,60.00
2023-02-07T05:22:27.360Z,58.40
2023-02-07T05:36:06.303Z,53.75
2023-02-07T05:39:10.936Z,51.20
2023-02-07T05:42:14.246Z,51.00
2023-02-07T05:45:17.661Z,53.00
2023-02-07T05:48:21.124Z,52.00
2023-02-07T05:51:24.483Z,53.00
2023-02-07T05:54:43.267Z,52.00
2023-02-07T05:57:48.300Z,52.00
2023-02-07T06:04:34.271Z,53.00
2023-02-07T06:07:37.674Z,51.40
2023-02-07T06:10:41.438Z,51.00
2023-02-07T06:13:46.080Z,52.80
2023-02-07T06:16:49.345Z,52.00
2023-02-07T06:19:53.742Z,53.00
2023-02-07T06:22:57.064Z,52.20
2023-02-07T06:26:00.723Z,53.00
2023-02-07T06:29:05.389Z,52.00
2023-02-07T06:32:08.821Z,54.60
2023-02-07T06:35:12.077Z,55.00
2023-02-07T06:38:15.874Z,54.60
2023-02-07T06:41:19.658Z,55.00
2023-02-07T06:44:24.279Z,54.60
2023-02-07T06:47:27.561Z,58.00
2023-02-07T06:50:42.036Z,56.00
2023-02-07T06:53:45.453Z,62.00
2023-02-07T06:56:50.881Z,62.67
2023-02-07T07:03:45.977Z,54.50
2023-02-07T07:17:54.829Z,54.60
2023-02-07T07:20:59.936Z,53.00
2023-02-07T07:24:03.438Z,51.00
2023-02-07T07:27:06.778Z,51.80
2023-02-07T07:30:11.681Z,53.00
2023-02-07T07:33:15.047Z,59.00
2023-02-07T07:36:19.729Z,56.20
2023-02-07T07:39:22.996Z,52.00
2023-02-07T07:42:26.302Z,58.40
2023-02-07T07:45:43.980Z,55.25
2023-02-07T07:48:47.314Z,59.40
2023-02-07T07:51:53.521Z,56.00
2023-02-07T07:54:56.864Z,58.60
2023-02-07T07:58:00.093Z,55.20
2023-02-07T08:16:04.981Z,59.80
2023-02-07T08:19:08.455Z,61.40
2023-02-07T08:22:12.541Z,55.20
2023-02-07T08:25:15.860Z,54.00
2023-02-07T08:48:03.539Z,51.00
2023-02-07T08:51:10.130Z,52.00
2023-02-07T08:54:13.625Z,52.00
2023-02-07T08:57:17.324Z,52.00
2023-02-07T09:11:58.045Z,53.00
2023-02-07T09:15:03.099Z,55.00
2023-02-07T10:19:04.474Z,52.80
2023-02-07T10:25:58.042Z,51.00
2023-02-07T10:32:48.232Z,57.00
2023-02-07T10:35:59.964Z,57.00
2023-02-07T10:46:36.370Z,59.20
2023-02-07T10:49:39.951Z,61.40
2023-02-07T10:52:50.933Z,58.20
2023-02-07T10:55:54.521Z,56.80
2023-02-07T10:58:59.238Z,58.60
2023-02-07T11:02:03.024Z,57.75
2023-02-07T11:08:52.399Z,59.40
2023-02-07T11:15:50.844Z,61.00
2023-02-07T11:19:03.344Z,59.00
2023-02-07T11:22:13.431Z,59.80
2023-02-07T11:47:31.918Z,61.75
2023-02-07T12:01:56.786Z,64.75
2023-02-07T12:05:16.014Z,59.75
2023-02-07T12:08:23.075Z,57.50
2023-02-07T12:11:34.252Z,60.40
2023-02-07T12:14:43.981Z,57.25
2023-02-07T12:18:05.687Z,59.80
2023-02-07T12:24:59.469Z,64.20
2023-02-07T12:28:14.476Z,61.40
2023-02-07T12:31:26.984Z,61.00
2023-02-07T12:34:35.580Z,63.00
2023-02-07T12:37:47.807Z,60.60
2023-02-07T12:40:57.240Z,67.00
2023-02-07T12:44:07.382Z,67.60
2023-02-07T12:47:23.508Z,70.00
2023-02-07T12:50:43.778Z,67.00
2023-02-07T12:54:05.290Z,67.00
2023-02-07T12:57:14.021Z,68.25
2023-02-07T13:00:24.484Z,69.00
2023-02-07T13:03:47.309Z,65.20
2023-02-07T13:07:06.407Z,69.00
2023-02-07T13:10:22.905Z,67.00
2023-02-07T13:13:31.869Z,68.40
2023-02-07T13:16:42.468Z,65.40
2023-02-07T21:41:32.253Z,90.20
2023-02-07T21:44:37.695Z,86.25
2023-02-07T21:47:41.468Z,87.00
2023-02-07T21:50:45.346Z,89.20
2023-02-07T21:53:50.307Z,89.00
2023-02-07T21:56:53.843Z,93.00
2023-02-07T21:59:58.831Z,88.40
2023-02-07T22:03:02.993Z,91.80
2023-02-07T22:09:52.062Z,88.40
2023-02-07T22:12:55.356Z,87.00
2023-02-07T22:16:00.676Z,89.50
2023-02-07T22:19:06.157Z,95.20
2023-02-07T22:29:39.724Z,93.50
2023-02-07T22:40:09.265Z,93.40
2023-02-07T22:43:15.682Z,85.60
2023-02-07T22:46:21.551Z,91.00
2023-02-07T22:49:25.055Z,90.75
2023-02-07T22:52:28.514Z,87.00
2023-02-07T23:40:32.851Z,86.75
